Date,TemperatureHighF,TemperatureAvgF,TemperatureLowF,DewpointHighF,DewpointAvgF,DewpointLowF,HumidityHigh,HumidityAvg,HumidityLow,PressureMaxIn,PressureMinIn,WindSpeedMaxMPH,WindSpeedAvgMPH,GustSpeedMaxMPH,PrecipitationSumIn
2013-1-1,37.0,34.6,27.0,35.0,31.8,22.0,94,90,78,30.26,30.04,2,0,0,0.00
2013-1-2,35.0,24.8,16.0,27.0,21.0,13.0,92,85,67,30.31,30.21,2,0,0,0.00
2013-1-3,43.0,26.2,15.0,30.0,21.0,12.0,92,82,52,30.44,30.27,4,0,0,0.00
2013-1-4,46.0,28.2,17.0,29.0,21.5,14.0,92,78,41,30.50,30.35,2,0,0,0.00
2013-1-5,49.0,34.6,24.0,33.0,27.6,21.0,91,77,50,30.35,30.17,5,1,0,0.00
2013-1-6,46.0,31.4,22.0,29.0,24.0,18.0,94,76,46,30.39,30.21,8,2,0,0.00
2013-1-7,52.0,29.5,15.0,30.0,21.2,12.0,91,74,37,30.42,30.17,4,0,0,0.00
2013-1-8,57.0,39.5,22.0,42.0,30.9,19.0,93,73,49,30.22,30.07,3,0,0,0.00
2013-1-9,58.0,49.3,44.0,47.0,44.1,42.0,95,84,60,30.36,30.20,3,0,0,0.00
2013-1-10,51.0,47.8,44.0,50.0,45.7,41.0,95,92,73,30.29,29.80,2,0,0,0.00
2013-1-11,65.0,49.1,34.0,51.0,43.0,33.0,96,81,54,29.91,29.78,3,1,0,0.00
2013-1-12,59.0,49.0,34.0,52.0,45.2,31.0,94,88,71,29.90,29.72,5,1,0,0.00
2013-1-13,35.0,30.1,20.0,33.0,24.6,16.0,92,80,63,30.37,29.88,7,2,0,0.00
2013-1-14,31.0,21.1,13.0,18.0,14.5,10.0,91,77,46,30.51,30.36,5,1,0,0.00
2013-1-15,28.0,22.4,15.0,24.0,18.1,12.0,89,84,73,30.39,30.16,2,0,0,0.00
2013-1-16,45.0,26.3,13.0,28.0,19.1,10.0,92,76,42,30.24,30.09,3,0,0,0.00
2013-1-17,46.0,31.5,21.0,35.0,25.3,19.0,92,79,52,30.50,30.18,7,2,0,0.00
2013-1-18,59.0,36.9,19.0,33.0,25.4,17.0,92,68,28,30.54,30.22,3,0,0,0.00
2013-1-19,66.0,44.8,26.0,38.0,31.1,23.0,91,62,35,30.22,30.03,7,1,0,0.00
2013-1-20,56.0,37.5,25.0,36.0,27.8,23.0,94,73,35,30.30,30.12,2,0,0,0.00
2013-1-21,40.0,30.2,22.0,28.0,16.6,13.0,88,58,38,30.40,30.23,6,1,0,0.00
2013-1-22,37.0,26.2,16.0,20.0,16.1,12.0,88,67,45,30.42,30.29,4,1,0,0.00
2013-1-23,60.0,34.3,18.0,42.0,26.3,15.0,91,74,46,30.33,30.11,1,0,0,0.00
2013-1-24,39.0,33.0,29.0,32.0,18.7,13.0,93,57,43,30.43,30.20,6,3,0,0.00
2013-1-25,47.0,35.1,29.0,35.0,27.1,19.0,86,73,58,30.25,30.14,4,1,0,0.00
2013-1-26,56.0,40.6,26.0,34.0,27.8,24.0,93,65,34,30.32,30.19,4,1,0,0.00
2013-1-27,59.0,48.5,44.0,54.0,42.0,32.0,92,79,57,30.22,29.96,3,1,0,0.00
2013-1-28,75.0,67.8,57.0,62.0,59.5,54.0,89,75,59,29.97,29.85,7,2,0,0.00
2013-1-29,68.0,63.4,53.0,62.0,58.7,51.0,95,85,76,29.85,29.40,8,1,0,0.00
2013-1-30,53.0,39.8,30.0,52.0,32.8,21.0,95,76,62,30.03,29.43,12,5,0,0.00
2013-1-31,53.0,36.8,20.0,30.0,22.4,7.0,90,58,39,30.42,30.03,8,4,0,0.00